createdAt,value
2018-01-15T00:02:12.825Z,0.30
2018-01-15T00:04:40.285Z,0.20
2018-01-15T00:07:07.699Z,0.20
2018-01-15T00:09:35.128Z,0.20
2018-01-15T00:12:02.525Z,0.20
2018-01-15T00:14:30.706Z,0.20
2018-01-15T00:16:58.898Z,0.20
2018-01-15T00:19:27.097Z,0.20
2018-01-15T00:21:55.274Z,0.20
2018-01-15T00:24:23.458Z,0.10
2018-01-15T00:26:51.668Z,0.10
2018-01-15T00:29:19.866Z,0.10
2018-01-15T00:31:48.113Z,0.10
2018-01-15T00:34:16.303Z,0.10
2018-01-15T00:36:44.532Z,0.00
2018-01-15T00:39:11.975Z,0.00
2018-01-15T00:41:39.454Z,0.00
2018-01-15T00:44:06.877Z,0.00
2018-01-15T00:46:34.337Z,0.00
2018-01-15T00:49:03.261Z,0.00
2018-01-15T00:51:31.502Z,0.00
2018-01-15T00:53:58.949Z,0.00
2018-01-15T00:56:26.350Z,0.00
2018-01-15T00:58:53.782Z,0.00
2018-01-15T01:01:21.181Z,0.00
2018-01-15T01:03:48.605Z,0.00
2018-01-15T01:06:16.026Z,0.00
2018-01-15T01:08:43.441Z,0.00
2018-01-15T01:11:10.857Z,0.00
2018-01-15T01:13:38.270Z,0.00
2018-01-15T01:16:05.685Z,0.10
2018-01-15T01:18:33.114Z,0.10
2018-01-15T01:21:00.529Z,0.10
2018-01-15T01:23:27.949Z,0.10
2018-01-15T01:25:55.605Z,0.10
2018-01-15T01:28:23.805Z,0.10
2018-01-15T01:30:51.223Z,0.10
2018-01-15T01:33:18.645Z,0.10
2018-01-15T01:35:46.130Z,0.10
2018-01-15T01:38:13.539Z,0.00
2018-01-15T01:40:41.045Z,0.00
2018-01-15T01:43:08.469Z,0.00
2018-01-15T01:45:35.873Z,0.00
2018-01-15T01:48:04.049Z,0.00
2018-01-15T01:50:32.221Z,0.00
2018-01-15T01:52:59.645Z,0.00
2018-01-15T01:55:27.052Z,0.00
2018-01-15T01:57:54.470Z,0.00
2018-01-15T02:00:21.880Z,0.00
2018-01-15T02:02:49.291Z,0.10
2018-01-15T02:05:17.463Z,0.00
2018-01-15T02:07:45.660Z,0.00
2018-01-15T02:10:13.835Z,0.10
2018-01-15T02:12:42.014Z,0.10
2018-01-15T02:15:10.185Z,0.10
2018-01-15T02:17:37.589Z,0.10
2018-01-15T02:20:05.067Z,0.20
2018-01-15T02:22:32.474Z,0.20
2018-01-15T02:24:59.882Z,0.20
2018-01-15T02:27:28.086Z,0.30
2018-01-15T02:29:55.562Z,0.30
2018-01-15T02:32:22.968Z,0.30
2018-01-15T02:34:50.396Z,0.30
2018-01-15T02:37:17.809Z,0.30
2018-01-15T02:39:45.215Z,0.30
2018-01-15T02:42:13.388Z,0.30
2018-01-15T02:44:41.561Z,0.30
2018-01-15T02:47:09.790Z,0.30
2018-01-15T02:49:37.197Z,0.30
2018-01-15T02:52:04.607Z,0.30
2018-01-15T02:54:32.786Z,0.30
2018-01-15T02:57:00.960Z,0.30
2018-01-15T02:59:28.377Z,0.30
2018-01-15T03:01:55.830Z,0.30
2018-01-15T03:04:23.298Z,0.40
2018-01-15T03:06:50.697Z,0.40
2018-01-15T03:09:18.113Z,0.40
2018-01-15T03:11:46.297Z,0.50
2018-01-15T03:14:14.477Z,0.60
2018-01-15T03:16:42.654Z,0.60
2018-01-15T03:19:10.083Z,0.50
2018-01-15T03:21:37.490Z,0.60
2018-01-15T03:24:04.992Z,0.60
2018-01-15T03:26:32.401Z,0.60
2018-01-15T03:28:59.812Z,0.70
2018-01-15T03:31:28.025Z,0.70
2018-01-15T03:33:55.425Z,0.70
2018-01-15T03:36:22.851Z,0.70
2018-01-15T03:38:50.322Z,0.70
2018-01-15T03:41:17.891Z,0.70
2018-01-15T03:43:45.357Z,0.70
2018-01-15T03:46:12.781Z,0.80
2018-01-15T03:48:40.190Z,0.70
2018-01-15T03:51:07.666Z,0.70
2018-01-15T03:53:35.085Z,0.70
2018-01-15T03:56:02.488Z,0.70
2018-01-15T03:58:29.910Z,0.80
2018-01-15T04:00:57.317Z,0.80
2018-01-15T04:03:25.530Z,0.70
2018-01-15T04:05:52.937Z,0.70
2018-01-15T04:08:20.362Z,0.80
2018-01-15T04:10:47.832Z,0.80
2018-01-15T04:13:15.233Z,0.70
2018-01-15T04:15:42.653Z,0.70
2018-01-15T04:18:10.130Z,0.70
2018-01-15T04:20:37.545Z,0.70
2018-01-15T04:23:04.961Z,0.70
2018-01-15T04:25:32.439Z,0.70
2018-01-15T04:27:59.854Z,0.70
2018-01-15T04:30:27.269Z,0.70
2018-01-15T04:32:54.678Z,0.70
2018-01-15T04:35:22.086Z,0.70
2018-01-15T04:37:50.262Z,0.70
2018-01-15T04:40:17.677Z,0.70
2018-01-15T04:42:45.086Z,0.70
2018-01-15T04:45:12.507Z,0.70
2018-01-15T04:47:39.905Z,0.70
2018-01-15T04:50:07.352Z,0.70
2018-01-15T04:52:34.738Z,0.70
2018-01-15T04:55:02.149Z,0.70
2018-01-15T04:57:30.322Z,0.80
2018-01-15T04:59:58.542Z,0.80
2018-01-15T05:02:25.953Z,0.70
2018-01-15T05:04:53.482Z,0.80
2018-01-15T05:07:20.941Z,0.80
2018-01-15T05:09:48.349Z,0.80
2018-01-15T05:12:15.784Z,0.80
2018-01-15T05:14:43.210Z,0.80
2018-01-15T05:17:12.154Z,0.80
2018-01-15T05:19:40.305Z,0.80
2018-01-15T05:22:08.482Z,0.80
2018-01-15T05:24:35.899Z,0.80
2018-01-15T05:27:03.353Z,0.90
2018-01-15T05:29:30.767Z,0.90
2018-01-15T05:31:58.177Z,0.90
2018-01-15T05:34:26.357Z,0.90
2018-01-15T05:36:54.538Z,0.90
2018-01-15T05:39:22.721Z,0.80
2018-01-15T05:41:50.131Z,0.80
2018-01-15T05:44:17.549Z,0.80
2018-01-15T05:46:44.963Z,0.80
2018-01-15T05:49:12.417Z,0.90
2018-01-15T05:51:39.999Z,0.80
2018-01-15T05:54:08.185Z,0.80
2018-01-15T05:56:35.648Z,0.80
2018-01-15T05:59:03.123Z,0.80
2018-01-15T06:01:30.568Z,0.80
2018-01-15T06:03:57.948Z,0.80
2018-01-15T06:06:25.385Z,0.70
2018-01-15T06:08:52.774Z,0.70
2018-01-15T06:11:20.955Z,0.80
2018-01-15T06:13:49.133Z,0.80
2018-01-15T06:16:16.649Z,0.70
2018-01-15T06:18:44.093Z,0.80
2018-01-15T06:21:11.510Z,0.80
2018-01-15T06:23:38.922Z,0.80
2018-01-15T06:26:07.097Z,0.80
2018-01-15T06:28:35.269Z,0.80
2018-01-15T06:31:02.685Z,0.80
2018-01-15T06:33:30.094Z,0.70
2018-01-15T06:35:57.498Z,0.80
2018-01-15T06:38:24.910Z,0.80
2018-01-15T06:40:52.333Z,0.70
2018-01-15T06:43:20.510Z,0.70
2018-01-15T06:45:48.693Z,0.70
2018-01-15T06:48:16.877Z,0.70
2018-01-15T06:50:45.066Z,0.70
2018-01-15T06:53:14.666Z,0.70
2018-01-15T06:55:42.076Z,0.70
2018-01-15T06:58:09.489Z,0.70
2018-01-15T07:00:36.905Z,0.70
2018-01-15T07:03:04.344Z,0.70
2018-01-15T07:05:31.742Z,0.70
2018-01-15T07:07:59.922Z,0.70
2018-01-15T07:10:28.155Z,0.80
2018-01-15T07:12:56.306Z,0.80
2018-01-15T07:15:23.777Z,0.80
2018-01-15T07:17:51.268Z,0.80
2018-01-15T07:20:18.713Z,0.90
2018-01-15T07:22:46.216Z,0.90
2018-01-15T07:25:13.622Z,1.00
2018-01-15T07:27:41.018Z,1.00
2018-01-15T07:30:08.435Z,1.00
2018-01-15T07:32:35.845Z,1.00
2018-01-15T07:35:03.318Z,1.10
2018-01-15T07:37:30.807Z,1.10
2018-01-15T07:39:58.205Z,1.10
2018-01-15T07:42:25.620Z,1.20
2018-01-15T07:44:53.799Z,1.20
2018-01-15T07:47:21.998Z,1.30
2018-01-15T07:49:49.423Z,1.20
2018-01-15T07:52:16.833Z,1.30
2018-01-15T07:54:44.318Z,1.40
2018-01-15T07:57:11.781Z,1.40
2018-01-15T07:59:39.248Z,1.40
2018-01-15T08:02:07.557Z,1.50
2018-01-15T08:04:34.953Z,1.50
2018-01-15T08:07:02.370Z,1.50
2018-01-15T08:09:29.798Z,1.60
2018-01-15T08:11:57.989Z,1.70
2018-01-15T08:14:25.485Z,1.70
2018-01-15T08:16:53.005Z,1.70
2018-01-15T08:19:20.415Z,1.70
2018-01-15T08:21:48.606Z,1.70
2018-01-15T08:24:16.093Z,1.80
2018-01-15T08:26:43.759Z,1.80
2018-01-15T08:29:11.231Z,1.80
2018-01-15T08:31:39.389Z,1.80
2018-01-15T08:34:07.690Z,1.80
2018-01-15T08:36:35.181Z,1.80
2018-01-15T08:39:02.595Z,1.80
2018-01-15T08:41:30.013Z,1.80
2018-01-15T08:43:57.427Z,1.90
2018-01-15T08:46:24.856Z,1.90
2018-01-15T08:48:52.262Z,2.00
2018-01-15T08:51:19.784Z,2.00
2018-01-15T08:53:47.973Z,2.00
2018-01-15T08:56:15.397Z,2.00
2018-01-15T08:58:43.635Z,2.10
2018-01-15T09:01:11.101Z,2.10
2018-01-15T09:03:39.251Z,2.20
2018-01-15T09:06:07.438Z,2.20
2018-01-15T09:08:35.650Z,2.20
2018-01-15T09:11:03.111Z,2.30
2018-01-15T09:13:30.526Z,2.30
2018-01-15T09:15:57.994Z,2.30
2018-01-15T09:18:25.381Z,2.40
2018-01-15T09:20:52.894Z,2.40
2018-01-15T09:23:20.305Z,2.50
2018-01-15T09:25:47.717Z,2.50
2018-01-15T09:28:15.129Z,2.50
2018-01-15T09:30:42.529Z,2.60
2018-01-15T09:33:10.745Z,2.70
2018-01-15T09:35:38.951Z,2.70
2018-01-15T09:38:06.364Z,2.70
2018-01-15T09:40:34.564Z,2.80
2018-01-15T09:43:02.779Z,2.90
2018-01-15T09:45:30.604Z,2.80
2018-01-15T09:47:58.041Z,2.90
2018-01-15T09:50:25.487Z,3.00
2018-01-15T09:52:52.885Z,3.00
2018-01-15T09:55:20.298Z,3.10
2018-01-15T09:57:48.589Z,3.30
2018-01-15T10:00:16.789Z,3.30
2018-01-15T10:02:44.217Z,3.30
2018-01-15T10:05:11.617Z,3.40
2018-01-15T10:07:39.035Z,3.40
2018-01-15T10:10:06.449Z,3.50
2018-01-15T10:12:33.862Z,3.50
2018-01-15T10:15:01.269Z,3.60
2018-01-15T10:17:29.494Z,3.70
2018-01-15T10:19:57.645Z,3.70
2018-01-15T10:22:25.848Z,3.70
2018-01-15T10:24:54.049Z,3.70
2018-01-15T10:27:21.522Z,3.70
2018-01-15T10:29:48.992Z,3.70
2018-01-15T10:32:16.401Z,3.60
2018-01-15T10:34:43.817Z,3.60
2018-01-15T10:37:11.244Z,3.60
2018-01-15T10:39:38.658Z,3.60
2018-01-15T10:42:06.117Z,3.70
2018-01-15T10:44:33.583Z,3.60
2018-01-15T10:47:01.058Z,3.70
2018-01-15T10:49:28.550Z,3.70
2018-01-15T10:51:55.983Z,3.70
2018-01-15T10:54:24.285Z,3.70
2018-01-15T10:56:51.786Z,3.70
2018-01-15T10:59:19.257Z,3.60
2018-01-15T11:01:46.677Z,3.70
2018-01-15T11:04:14.166Z,3.70
2018-01-15T11:06:41.578Z,3.60
2018-01-15T11:09:09.099Z,3.60
2018-01-15T11:11:36.519Z,3.60
2018-01-15T11:14:03.975Z,3.60
2018-01-15T11:16:31.376Z,3.70
2018-01-15T11:18:59.578Z,3.80
2018-01-15T11:21:27.753Z,3.90
2018-01-15T11:23:55.938Z,3.90
2018-01-15T11:26:24.154Z,3.90
2018-01-15T11:28:51.558Z,3.90
2018-01-15T11:31:18.976Z,3.90
2018-01-15T11:33:47.148Z,4.10
2018-01-15T11:36:15.358Z,4.10
2018-01-15T11:38:42.778Z,4.10
2018-01-15T11:41:11.030Z,4.50
2018-01-15T11:43:38.446Z,4.50
2018-01-15T11:46:06.679Z,4.60
2018-01-15T11:48:34.094Z,4.60
2018-01-15T11:51:01.533Z,4.50
2018-01-15T11:53:29.080Z,4.50
2018-01-15T11:55:56.480Z,4.40
2018-01-15T11:58:23.915Z,4.40
2018-01-15T12:00:51.385Z,4.40
2018-01-15T12:03:18.757Z,4.40
2018-01-15T12:05:46.174Z,4.40
2018-01-15T12:08:14.404Z,4.30
2018-01-15T12:10:42.555Z,4.40
2018-01-15T12:13:10.762Z,4.40
2018-01-15T12:15:38.249Z,4.40
2018-01-15T12:18:05.675Z,4.40
2018-01-15T12:20:33.070Z,4.50
2018-01-15T12:23:00.490Z,4.50
2018-01-15T12:25:27.962Z,4.50
2018-01-15T12:27:55.487Z,4.40
2018-01-15T12:30:23.930Z,4.40
2018-01-15T12:32:51.361Z,4.40
2018-01-15T12:35:18.777Z,4.40
2018-01-15T12:37:46.966Z,4.40
2018-01-15T12:40:14.465Z,4.30
2018-01-15T12:42:41.890Z,4.30
2018-01-15T12:45:09.414Z,4.40
2018-01-15T12:47:36.862Z,4.30
2018-01-15T12:50:04.256Z,4.30
2018-01-15T12:52:31.716Z,4.30
2018-01-15T12:54:59.124Z,4.30
2018-01-15T12:57:26.553Z,4.40
2018-01-15T12:59:53.963Z,4.30
2018-01-15T13:02:22.145Z,4.40
2018-01-15T13:04:49.566Z,4.40
2018-01-15T13:07:28.922Z,4.40
2018-01-15T13:09:56.406Z,4.40
2018-01-15T13:12:23.901Z,4.50
2018-01-15T13:14:51.293Z,4.40
2018-01-15T13:17:19.491Z,4.40
2018-01-15T13:19:47.706Z,4.40
2018-01-15T13:22:15.142Z,4.40
2018-01-15T13:24:43.342Z,4.40
2018-01-15T13:27:11.510Z,4.40
2018-01-15T13:29:39.720Z,4.40
2018-01-15T13:32:07.146Z,4.30
2018-01-15T13:34:34.562Z,4.30
2018-01-15T13:37:01.989Z,4.40
2018-01-15T13:39:30.201Z,4.40
2018-01-15T13:41:57.737Z,4.30
2018-01-15T13:44:25.157Z,4.40
2018-01-15T13:46:52.574Z,4.40
2018-01-15T13:49:20.086Z,4.40
2018-01-15T13:51:47.539Z,4.40
2018-01-15T13:54:15.784Z,4.40
2018-01-15T13:56:43.220Z,4.40
2018-01-15T13:59:10.682Z,4.40
2018-01-15T14:01:38.146Z,4.40
2018-01-15T14:04:05.629Z,4.40
2018-01-15T14:06:33.058Z,4.40
2018-01-15T14:09:01.234Z,4.40
2018-01-15T14:11:29.456Z,4.40
2018-01-15T14:13:56.879Z,4.40
2018-01-15T14:16:25.058Z,4.40
2018-01-15T14:18:52.601Z,4.40
2018-01-15T14:21:20.057Z,4.30
2018-01-15T14:23:48.846Z,4.30
2018-01-15T14:26:16.269Z,4.30
2018-01-15T14:28:43.705Z,4.30
2018-01-15T14:31:11.136Z,4.30
2018-01-15T14:33:39.365Z,4.30
2018-01-15T14:36:06.817Z,4.20
2018-01-15T14:38:34.241Z,4.20
2018-01-15T14:41:02.492Z,4.20
2018-01-15T14:43:29.880Z,4.20
2018-01-15T14:45:57.293Z,4.20
2018-01-15T14:48:24.717Z,4.20
2018-01-15T14:50:52.238Z,4.20
2018-01-15T14:53:19.653Z,4.30
2018-01-15T14:55:47.177Z,4.30
2018-01-15T14:58:14.598Z,4.30
2018-01-15T15:00:42.121Z,4.30
2018-01-15T15:03:09.568Z,4.30
2018-01-15T15:05:37.721Z,4.30
2018-01-15T15:08:05.248Z,4.20
2018-01-15T15:10:33.429Z,4.30
2018-01-15T15:13:00.844Z,4.20
2018-01-15T15:15:28.262Z,4.20
2018-01-15T15:17:55.668Z,4.20
2018-01-15T15:20:23.081Z,4.30
2018-01-15T15:22:51.276Z,4.30
2018-01-15T15:25:18.775Z,4.30
2018-01-15T15:27:46.246Z,4.30
2018-01-15T15:30:13.648Z,4.30
2018-01-15T15:32:41.065Z,4.30
2018-01-15T15:35:08.489Z,4.30
2018-01-15T15:37:36.681Z,4.30
2018-01-15T15:40:04.902Z,4.30
2018-01-15T15:42:32.306Z,4.30
2018-01-15T15:44:59.709Z,4.30
2018-01-15T15:47:27.893Z,4.30
2018-01-15T15:49:56.069Z,4.30
2018-01-15T15:52:24.273Z,4.30
2018-01-15T15:54:52.515Z,4.30
2018-01-15T15:57:19.935Z,4.30
2018-01-15T15:59:47.421Z,4.30
2018-01-15T16:02:14.836Z,4.30
2018-01-15T16:04:42.258Z,4.30
2018-01-15T16:07:09.682Z,4.40
2018-01-15T16:09:37.194Z,4.40
2018-01-15T16:12:04.662Z,4.40
2018-01-15T16:14:32.063Z,4.40
2018-01-15T16:16:59.505Z,4.50
2018-01-15T16:19:26.985Z,4.50
2018-01-15T16:22:06.427Z,4.50
2018-01-15T16:24:34.592Z,4.50
2018-01-15T16:27:02.054Z,4.50
2018-01-15T16:29:29.493Z,4.60
2018-01-15T16:31:56.921Z,4.50
2018-01-15T16:34:24.370Z,4.50
2018-01-15T16:36:51.782Z,4.50
2018-01-15T16:39:19.208Z,4.60
2018-01-15T16:41:46.631Z,4.50
2018-01-15T16:44:15.577Z,4.50
2018-01-15T16:46:42.996Z,4.50
2018-01-15T16:49:10.430Z,4.60
2018-01-15T16:51:37.850Z,4.50
2018-01-15T16:54:06.083Z,4.50
2018-01-15T16:56:33.528Z,4.50
2018-01-15T16:59:00.922Z,4.50
2018-01-15T17:01:28.365Z,4.50
2018-01-15T17:03:55.810Z,4.50
2018-01-15T17:06:23.192Z,4.50
2018-01-15T17:08:51.409Z,4.50
2018-01-15T17:11:18.853Z,4.50
2018-01-15T17:13:46.306Z,4.50
2018-01-15T17:16:14.526Z,4.50
2018-01-15T17:18:42.677Z,4.60
2018-01-15T17:21:10.872Z,4.60
2018-01-15T17:23:39.067Z,4.60
2018-01-15T17:26:07.316Z,4.60
2018-01-15T17:28:34.676Z,4.60
2018-01-15T17:31:02.082Z,4.60
2018-01-15T17:33:30.269Z,4.60
2018-01-15T17:35:57.755Z,4.60
2018-01-15T17:38:25.174Z,4.70
2018-01-15T17:40:52.603Z,4.70
2018-01-15T17:43:20.091Z,4.70
2018-01-15T17:45:47.522Z,4.70
2018-01-15T17:48:14.948Z,4.80
2018-01-15T17:50:42.373Z,4.80
2018-01-15T17:53:09.809Z,4.80
2018-01-15T17:55:38.021Z,4.80
2018-01-15T17:58:05.469Z,4.80
2018-01-15T18:00:33.680Z,4.80
2018-01-15T18:03:01.094Z,4.80
2018-01-15T18:05:28.607Z,4.80
2018-01-15T18:07:56.049Z,4.80
2018-01-15T18:10:23.461Z,4.80
2018-01-15T18:12:50.873Z,4.70
2018-01-15T18:15:18.318Z,4.80
2018-01-15T18:17:45.725Z,4.80
2018-01-15T18:20:13.969Z,4.80
2018-01-15T18:22:41.392Z,4.80
2018-01-15T18:25:08.809Z,4.70
2018-01-15T18:27:36.261Z,4.80
2018-01-15T18:30:03.689Z,4.80
2018-01-15T18:32:31.882Z,4.80
2018-01-15T18:34:59.333Z,4.80
2018-01-15T18:37:26.737Z,4.80
2018-01-15T18:39:54.165Z,4.80
2018-01-15T18:42:21.573Z,4.80
2018-01-15T18:44:48.991Z,4.80
2018-01-15T18:47:16.417Z,4.80
2018-01-15T18:49:43.982Z,4.80
2018-01-15T18:52:11.369Z,4.90
2018-01-15T18:54:38.783Z,4.90
2018-01-15T18:57:06.966Z,4.90
2018-01-15T18:59:35.144Z,4.90
2018-01-15T19:02:03.329Z,4.90
2018-01-15T19:04:31.522Z,5.00
2018-01-15T19:06:58.943Z,5.00
2018-01-15T19:09:26.374Z,5.00
2018-01-15T19:11:53.801Z,5.00
2018-01-15T19:14:21.301Z,5.00
2018-01-15T19:16:49.491Z,5.00
2018-01-15T19:19:17.674Z,5.00
2018-01-15T19:21:45.853Z,5.10
2018-01-15T19:24:14.045Z,5.00
2018-01-15T19:26:42.253Z,5.00
2018-01-15T19:29:09.674Z,5.00
2018-01-15T19:31:38.605Z,5.00
2018-01-15T19:34:07.618Z,5.00
2018-01-15T19:36:40.853Z,5.00
2018-01-15T19:39:08.291Z,5.00
2018-01-15T19:41:36.451Z,5.00
2018-01-15T19:44:10.382Z,5.00
2018-01-15T19:46:44.367Z,5.00
2018-01-15T19:49:17.652Z,4.90
2018-01-15T19:51:50.866Z,4.90
2018-01-15T19:54:23.861Z,4.90
2018-01-15T19:56:57.025Z,4.90
2018-01-15T19:59:31.045Z,4.90
2018-01-15T20:02:05.093Z,4.90
2018-01-15T20:04:38.095Z,4.90
2018-01-15T20:07:11.260Z,4.90
2018-01-15T20:09:45.201Z,4.90
2018-01-15T20:12:12.605Z,4.90
2018-01-15T20:14:40.045Z,4.90
2018-01-15T20:17:08.277Z,4.80
2018-01-15T20:19:35.645Z,4.80
2018-01-15T20:22:03.060Z,4.80
2018-01-15T20:24:30.543Z,4.80
2018-01-15T20:26:57.957Z,4.80
2018-01-15T20:29:25.393Z,4.80
2018-01-15T20:31:52.818Z,4.80
2018-01-15T20:34:20.997Z,4.80
2018-01-15T20:36:49.186Z,4.90
2018-01-15T20:39:17.371Z,4.90
2018-01-15T20:41:44.781Z,4.90
2018-01-15T20:44:12.193Z,4.90
2018-01-15T20:46:39.712Z,4.90
2018-01-15T20:49:07.124Z,4.90
2018-01-15T20:51:34.650Z,4.90
2018-01-15T20:54:02.121Z,4.90
2018-01-15T20:56:29.590Z,4.90
2018-01-15T20:58:57.064Z,4.90
2018-01-15T21:01:24.500Z,4.90
2018-01-15T21:03:52.666Z,5.00
2018-01-15T21:06:20.189Z,5.00
2018-01-15T21:08:47.606Z,5.00
2018-01-15T21:11:15.036Z,5.00
2018-01-15T21:13:42.447Z,5.10
2018-01-15T21:16:10.634Z,5.10
2018-01-15T21:18:38.807Z,5.20
2018-01-15T21:21:06.325Z,5.10
2018-01-15T21:23:33.784Z,5.20
2018-01-15T21:26:01.222Z,5.30
2018-01-15T21:28:29.432Z,5.20
2018-01-15T21:30:57.600Z,5.30
2018-01-15T21:33:25.781Z,5.30
2018-01-15T21:35:53.197Z,5.20
2018-01-15T21:41:19.671Z,5.50
2018-01-15T21:43:47.837Z,5.50
2018-01-15T21:46:15.328Z,5.50
2018-01-15T21:48:42.709Z,5.60
2018-01-15T21:51:10.178Z,5.70
2018-01-15T21:53:37.569Z,5.70
2018-01-15T21:56:04.977Z,5.80
2018-01-15T21:58:32.422Z,5.80
2018-01-15T22:00:59.797Z,5.80
2018-01-15T22:03:27.966Z,5.80
2018-01-15T22:05:55.382Z,5.80
2018-01-15T22:08:22.841Z,5.90
2018-01-15T22:10:50.259Z,5.90
2018-01-15T22:13:17.781Z,5.90
2018-01-15T22:15:45.206Z,5.90
2018-01-15T22:18:12.597Z,5.80
2018-01-15T22:20:40.829Z,5.90
2018-01-15T22:23:08.269Z,5.90
2018-01-15T22:25:35.687Z,5.90
2018-01-15T22:28:03.110Z,5.90
2018-01-15T22:30:30.537Z,5.90
2018-01-15T22:32:57.946Z,5.90
2018-01-15T22:35:25.356Z,5.90
2018-01-15T22:37:52.761Z,5.90
2018-01-15T22:40:20.928Z,5.90
2018-01-15T22:42:49.153Z,5.90
2018-01-15T22:45:16.554Z,5.90
2018-01-15T22:47:43.971Z,6.00
2018-01-15T22:50:11.385Z,5.90
2018-01-15T22:52:38.801Z,5.90
2018-01-15T22:55:06.989Z,5.80
2018-01-15T22:57:35.169Z,5.90
2018-01-15T23:00:03.377Z,5.80
2018-01-15T23:02:30.825Z,5.80
2018-01-15T23:04:59.029Z,5.80
2018-01-15T23:07:26.496Z,5.80
2018-01-15T23:09:53.973Z,5.80
2018-01-15T23:12:21.394Z,5.80
2018-01-15T23:14:48.815Z,5.80
2018-01-15T23:17:16.245Z,5.80
2018-01-15T23:19:43.638Z,5.80
2018-01-15T23:22:11.053Z,5.80
2018-01-15T23:24:38.465Z,5.90
2018-01-15T23:27:05.944Z,5.90
2018-01-15T23:29:33.356Z,5.90
2018-01-15T23:32:00.791Z,5.90
2018-01-15T23:34:28.197Z,5.90
2018-01-15T23:36:55.605Z,5.90
2018-01-15T23:39:23.021Z,5.90
2018-01-15T23:41:50.442Z,5.90
2018-01-15T23:44:18.618Z,5.90
2018-01-15T23:46:46.805Z,5.90
2018-01-15T23:49:14.216Z,5.90
2018-01-15T23:51:41.666Z,5.90
2018-01-15T23:54:09.121Z,5.90
2018-01-15T23:56:36.540Z,5.80
2018-01-15T23:59:03.941Z,5.80
